createdAt,value
2019-04-26T00:02:48.558Z,3.37
2019-04-26T00:05:33.696Z,3.70
2019-04-26T00:07:56.277Z,3.17
2019-04-26T00:10:35.799Z,3.67
2019-04-26T00:16:37.313Z,3.77
2019-04-26T00:19:09.794Z,3.20
2019-04-26T00:21:43.899Z,3.10
2019-04-26T00:24:17.251Z,3.33
2019-04-26T00:26:49.664Z,3.33
2019-04-26T00:29:22.417Z,3.80
2019-04-26T00:31:54.967Z,3.40
2019-04-26T00:34:27.336Z,2.90
2019-04-26T00:37:00.063Z,2.83
2019-04-26T00:39:32.777Z,3.30
2019-04-26T00:42:05.972Z,3.00
2019-04-26T00:44:38.525Z,3.57
2019-04-26T00:47:13.661Z,3.57
2019-04-26T00:49:46.748Z,3.90
2019-04-26T00:52:20.206Z,3.50
2019-04-26T00:54:52.744Z,3.17
2019-04-26T00:57:27.410Z,3.40
2019-04-26T01:00:01.042Z,3.00
2019-04-26T01:02:52.571Z,3.00
2019-04-26T01:05:26.057Z,2.83
2019-04-26T01:07:58.851Z,3.43
2019-04-26T01:10:31.389Z,3.60
2019-04-26T01:13:04.212Z,2.93
2019-04-26T01:15:36.989Z,3.43
2019-04-26T01:18:09.671Z,3.13
2019-04-26T01:20:44.390Z,2.93
2019-04-26T01:23:21.308Z,3.43
2019-04-26T01:26:19.249Z,3.00
2019-04-26T01:29:03.500Z,2.60
2019-04-26T01:31:43.452Z,3.00
2019-04-26T01:37:08.551Z,3.27
2019-04-26T01:39:48.586Z,2.80
2019-04-26T01:42:43.031Z,3.30
2019-04-26T01:45:32.979Z,3.10
2019-04-26T01:48:31.313Z,2.80
2019-04-26T01:51:03.835Z,3.23
2019-04-26T01:53:49.495Z,3.37
2019-04-26T01:56:29.187Z,3.30
2019-04-26T01:59:02.235Z,3.27
2019-04-26T02:01:53.464Z,2.87
2019-04-26T02:04:39.892Z,3.23
2019-04-26T02:07:14.379Z,3.70
2019-04-26T02:09:47.141Z,4.50
2019-04-26T02:12:19.468Z,3.57
2019-04-26T02:14:51.952Z,3.83
2019-04-26T02:17:25.400Z,3.13
2019-04-26T02:19:58.270Z,4.20
2019-04-26T02:22:44.565Z,3.40
2019-04-26T02:25:18.586Z,3.90
2019-04-26T02:27:51.258Z,4.00
2019-04-26T02:30:26.370Z,5.80
2019-04-26T02:32:59.025Z,4.07
2019-04-26T02:35:32.198Z,2.80
2019-04-26T02:38:05.522Z,3.80
2019-04-26T02:40:38.488Z,3.20
2019-04-26T02:43:11.667Z,3.40
2019-04-26T02:46:06.856Z,3.03
2019-04-26T02:48:58.702Z,3.90
2019-04-26T02:51:38.482Z,3.37
2019-04-26T02:54:48.226Z,4.07
2019-04-26T02:57:36.623Z,4.37
2019-04-26T03:00:13.955Z,3.93
2019-04-26T03:02:52.046Z,3.90
2019-04-26T03:05:25.791Z,3.80
2019-04-26T03:08:21.109Z,3.73
2019-04-26T03:11:11.891Z,3.23
2019-04-26T03:14:03.252Z,3.80
2019-04-26T03:17:18.959Z,3.77
2019-04-26T03:20:04.228Z,4.17
2019-04-26T03:23:40.983Z,3.97
2019-04-26T03:26:28.049Z,3.90
2019-04-26T03:29:50.792Z,3.77
2019-04-26T03:33:24.927Z,4.00
2019-04-26T03:36:51.948Z,3.87
2019-04-26T03:39:47.471Z,3.70
2019-04-26T03:42:56.669Z,3.50
2019-04-26T03:46:00.597Z,3.60
2019-04-26T03:49:45.580Z,3.50
2019-04-26T03:53:21.837Z,3.83
2019-04-26T03:56:53.496Z,4.10
2019-04-26T04:00:19.817Z,4.20
2019-04-26T04:03:14.562Z,4.10
2019-04-26T04:05:51.925Z,4.03
2019-04-26T04:08:48.237Z,4.73
2019-04-26T04:11:27.587Z,6.40
2019-04-26T04:14:20.976Z,4.50
2019-04-26T04:17:24.283Z,3.73
2019-04-26T04:20:42.483Z,3.73
2019-04-26T04:24:10.066Z,3.37
2019-04-26T04:27:51.184Z,4.50
2019-04-26T04:31:14.855Z,4.27
2019-04-26T04:34:09.945Z,4.17
2019-04-26T04:36:53.647Z,4.60
2019-04-26T04:39:42.035Z,4.80
2019-04-26T04:42:56.855Z,4.60
2019-04-26T04:46:02.123Z,4.47
2019-04-26T04:49:25.769Z,5.00
2019-04-26T04:53:13.388Z,4.10
2019-04-26T04:56:19.441Z,4.60
2019-04-26T04:58:57.174Z,5.20
2019-04-26T05:02:27.335Z,5.03
2019-04-26T05:05:44.898Z,4.33
2019-04-26T05:08:58.833Z,4.33
2019-04-26T05:12:17.012Z,4.40
2019-04-26T05:15:34.031Z,3.90
2019-04-26T05:18:39.742Z,4.20
2019-04-26T05:21:43.292Z,4.58
2019-04-26T05:24:35.600Z,4.33
2019-04-26T05:28:05.619Z,3.93
2019-04-26T05:31:34.561Z,3.83
2019-04-26T05:34:55.607Z,4.10
2019-04-26T05:37:51.046Z,4.00
2019-04-26T05:41:01.656Z,5.08
2019-04-26T05:44:06.225Z,4.03
2019-04-26T05:47:20.723Z,4.10
2019-04-26T05:51:10.713Z,4.70
2019-04-26T05:54:48.396Z,4.35
2019-04-26T05:58:18.476Z,4.58
2019-04-26T06:01:52.055Z,4.40
2019-04-26T06:05:18.813Z,4.53
2019-04-26T06:08:57.462Z,4.70
2019-04-26T06:11:43.402Z,5.20
2019-04-26T06:15:23.072Z,4.70
2019-04-26T06:18:57.260Z,3.83
2019-04-26T06:22:17.823Z,4.13
2019-04-26T06:25:29.560Z,4.40
2019-04-26T06:29:01.136Z,4.58
2019-04-26T06:32:02.646Z,4.87
2019-04-26T06:34:57.212Z,5.47
2019-04-26T06:37:45.488Z,5.22
2019-04-26T06:40:27.114Z,4.83
2019-04-26T06:43:32.631Z,4.17
2019-04-26T06:47:11.619Z,5.28
2019-04-26T06:50:12.161Z,4.63
2019-04-26T06:53:02.100Z,5.03
2019-04-26T06:55:51.070Z,5.27
2019-04-26T06:59:35.787Z,5.10
2019-04-26T07:02:20.913Z,5.75
2019-04-26T07:05:24.564Z,5.67
2019-04-26T07:09:00.577Z,4.70
2019-04-26T07:12:43.440Z,5.10
2019-04-26T07:15:44.160Z,6.03
2019-04-26T07:19:11.205Z,5.62
2019-04-26T07:22:35.495Z,6.08
2019-04-26T07:25:49.242Z,5.55
2019-04-26T07:29:09.759Z,7.00
2019-04-26T07:32:03.939Z,5.45
2019-04-26T07:35:17.681Z,6.03
2019-04-26T07:39:19.924Z,6.28
2019-04-26T07:43:03.248Z,6.78
2019-04-26T07:46:24.531Z,7.55
2019-04-26T07:50:05.071Z,6.12
2019-04-26T07:53:21.811Z,5.65
2019-04-26T07:56:42.619Z,7.42
2019-04-26T08:00:10.869Z,5.70
2019-04-26T08:03:07.084Z,5.87
2019-04-26T08:05:57.329Z,6.05
2019-04-26T08:08:37.362Z,6.92
2019-04-26T08:11:21.949Z,5.75
2019-04-26T08:14:12.589Z,6.53
2019-04-26T08:17:17.467Z,6.12
2019-04-26T08:20:23.582Z,6.95
2019-04-26T08:23:02.712Z,6.33
2019-04-26T08:25:38.836Z,6.17
2019-04-26T08:28:14.412Z,6.55
2019-04-26T08:30:52.797Z,6.75
2019-04-26T08:33:40.581Z,6.30
2019-04-26T08:36:14.710Z,5.92
2019-04-26T08:38:52.528Z,5.62
2019-04-26T08:41:25.781Z,5.58
2019-04-26T08:44:17.926Z,6.12
2019-04-26T08:47:24.880Z,5.87
2019-04-26T08:50:15.233Z,6.00
2019-04-26T08:52:51.796Z,5.58
2019-04-26T08:55:28.259Z,6.45
2019-04-26T08:58:07.289Z,5.15
2019-04-26T09:01:21.414Z,6.65
2019-04-26T09:04:02.060Z,7.70
2019-04-26T09:06:57.122Z,6.60
2019-04-26T09:09:34.250Z,6.78
2019-04-26T09:12:22.895Z,5.97
2019-04-26T09:14:53.964Z,6.28
2019-04-26T09:17:27.697Z,5.90
2019-04-26T09:20:06.971Z,6.30
2019-04-26T09:22:49.838Z,6.37
2019-04-26T09:25:39.401Z,6.00
2019-04-26T09:28:29.911Z,10.48
2019-04-26T09:31:19.643Z,13.48
2019-04-26T09:33:53.807Z,9.68
2019-04-26T09:36:26.016Z,10.05
2019-04-26T09:38:58.475Z,6.20
2019-04-26T09:41:31.079Z,7.75
2019-04-26T09:44:11.369Z,6.03
2019-04-26T09:47:11.584Z,6.90
2019-04-26T09:50:02.245Z,6.90
2019-04-26T09:52:40.340Z,6.22
2019-04-26T09:55:12.696Z,5.60
2019-04-26T09:57:44.812Z,6.25
2019-04-26T10:00:23.623Z,5.92
2019-04-26T10:02:55.743Z,6.90
2019-04-26T10:05:27.982Z,6.83
2019-04-26T10:08:00.041Z,6.25
2019-04-26T10:10:35.265Z,5.10
2019-04-26T10:13:15.184Z,6.10
2019-04-26T10:16:02.496Z,5.85
2019-04-26T10:18:35.287Z,5.20
2019-04-26T10:21:07.436Z,5.75
2019-04-26T10:23:39.853Z,6.15
2019-04-26T10:26:12.123Z,6.05
2019-04-26T10:28:46.832Z,5.97
2019-04-26T10:31:18.631Z,6.67
2019-04-26T10:33:51.213Z,7.25
2019-04-26T10:36:26.318Z,6.37
2019-04-26T10:38:58.373Z,8.03
2019-04-26T10:41:30.694Z,12.35
2019-04-26T10:44:02.756Z,6.53
2019-04-26T10:46:34.824Z,6.87
2019-04-26T10:49:50.628Z,6.72
2019-04-26T10:52:32.978Z,6.25
2019-04-26T10:55:24.445Z,6.28
2019-04-26T10:58:01.729Z,5.55
2019-04-26T11:00:38.591Z,5.62
2019-04-26T11:03:11.271Z,5.95
2019-04-26T11:05:43.952Z,6.62
2019-04-26T11:08:16.169Z,6.03
2019-04-26T11:10:49.131Z,6.22
2019-04-26T11:13:21.369Z,6.47
2019-04-26T11:15:53.638Z,6.25
2019-04-26T11:18:27.604Z,7.60
2019-04-26T11:20:59.831Z,7.62
2019-04-26T11:23:32.000Z,7.30
2019-04-26T11:26:04.103Z,6.97
2019-04-26T11:28:36.242Z,6.62
2019-04-26T11:31:08.408Z,6.72
2019-04-26T11:33:44.916Z,5.75
2019-04-26T11:36:14.405Z,7.22
2019-04-26T11:38:46.504Z,6.95
2019-04-26T11:41:18.626Z,6.28
2019-04-26T11:43:52.824Z,6.70
2019-04-26T11:46:29.198Z,6.58
2019-04-26T11:48:59.385Z,6.90
2019-04-26T11:51:31.753Z,7.15
2019-04-26T11:54:03.839Z,6.72
2019-04-26T11:56:37.546Z,8.33
2019-04-26T11:59:10.296Z,7.10
2019-04-26T12:01:42.758Z,6.75
2019-04-26T12:04:32.685Z,7.87
2019-04-26T12:07:20.412Z,8.08
2019-04-26T12:09:54.283Z,7.62
2019-04-26T12:12:26.405Z,7.90
2019-04-26T12:14:58.506Z,7.50
2019-04-26T12:17:31.159Z,8.05
2019-04-26T12:20:04.891Z,8.25
2019-04-26T12:22:39.352Z,7.83
2019-04-26T12:25:10.959Z,7.28
2019-04-26T12:27:43.122Z,7.92
2019-04-26T12:30:15.989Z,8.85
2019-04-26T12:32:50.037Z,7.78
2019-04-26T12:35:21.957Z,7.92
2019-04-26T12:37:54.817Z,7.12
2019-04-26T12:40:28.491Z,7.30
2019-04-26T12:43:00.532Z,7.42
2019-04-26T12:46:09.749Z,7.58
2019-04-26T12:48:41.808Z,7.90
2019-04-26T12:51:14.253Z,7.50
2019-04-26T12:53:46.404Z,7.67
2019-04-26T12:56:18.468Z,6.35
2019-04-26T12:58:51.308Z,8.60
2019-04-26T13:01:23.489Z,7.62
2019-04-26T13:04:06.042Z,7.30
2019-04-26T13:06:45.383Z,6.72
2019-04-26T13:09:21.882Z,7.15
2019-04-26T13:12:21.682Z,6.03
2019-04-26T13:14:59.115Z,6.00
2019-04-26T13:17:37.368Z,7.60
2019-04-26T13:20:09.830Z,6.97
2019-04-26T13:22:46.146Z,7.20
2019-04-26T13:25:26.023Z,6.83
2019-04-26T13:27:49.765Z,7.17
2019-04-26T13:30:32.467Z,6.75
2019-04-26T13:32:55.939Z,7.10
2019-04-26T13:35:28.296Z,8.00
2019-04-26T13:38:00.318Z,8.43
2019-04-26T13:40:32.855Z,7.22
2019-04-26T13:43:07.812Z,6.85
2019-04-26T13:45:56.076Z,8.23
2019-04-26T13:48:43.553Z,6.67
2019-04-26T13:51:18.149Z,8.75
2019-04-26T13:53:50.175Z,6.40
2019-04-26T13:56:22.460Z,6.97
2019-04-26T13:58:58.153Z,6.95
2019-04-26T14:01:28.330Z,7.50
2019-04-26T14:04:02.416Z,8.55
2019-04-26T14:06:34.383Z,9.60
2019-04-26T14:09:11.461Z,8.88
2019-04-26T14:11:43.548Z,7.58
2019-04-26T14:14:15.544Z,12.75
2019-04-26T14:16:47.705Z,10.68
2019-04-26T14:19:19.843Z,10.03
2019-04-26T14:21:52.483Z,7.70
2019-04-26T14:24:46.590Z,8.50
2019-04-26T14:27:25.263Z,7.33
2019-04-26T14:29:57.360Z,7.03
2019-04-26T14:32:29.472Z,7.70
2019-04-26T14:35:01.578Z,7.55
2019-04-26T14:37:33.676Z,7.22
2019-04-26T14:40:16.624Z,6.72
2019-04-26T14:42:46.061Z,7.53
2019-04-26T14:45:23.340Z,9.05
2019-04-26T14:47:48.701Z,12.47
2019-04-26T14:50:21.266Z,11.43
2019-04-26T14:52:53.347Z,9.55
2019-04-26T14:55:25.588Z,17.75
2019-04-26T14:57:57.744Z,18.35
2019-04-26T15:00:33.950Z,8.20
2019-04-26T15:03:24.172Z,7.58
2019-04-26T15:06:20.501Z,7.25
2019-04-26T15:08:53.088Z,6.78
2019-04-26T15:11:25.308Z,7.03
2019-04-26T15:13:57.432Z,7.12
2019-04-26T15:16:29.519Z,7.97
2019-04-26T15:19:01.621Z,6.70
2019-04-26T15:21:34.395Z,7.60
2019-04-26T15:24:06.674Z,7.45
2019-04-26T15:26:39.019Z,7.05
2019-04-26T15:29:12.631Z,7.28
2019-04-26T15:31:44.872Z,6.72
2019-04-26T15:34:19.298Z,6.92
2019-04-26T15:36:50.669Z,7.22
2019-04-26T15:39:30.158Z,7.90
2019-04-26T15:42:13.808Z,7.53
2019-04-26T15:44:57.495Z,8.23
2019-04-26T15:47:47.918Z,7.05
2019-04-26T15:50:25.451Z,8.10
2019-04-26T15:52:57.600Z,7.20
2019-04-26T15:55:33.805Z,7.05
2019-04-26T15:58:08.214Z,7.40
2019-04-26T16:00:37.743Z,8.15
2019-04-26T16:03:09.973Z,7.50
2019-04-26T16:05:43.336Z,6.58
2019-04-26T16:08:15.926Z,7.53
2019-04-26T16:10:48.083Z,7.60
2019-04-26T16:13:21.359Z,7.78
2019-04-26T16:15:56.029Z,6.83
2019-04-26T16:18:28.374Z,7.05
2019-04-26T16:21:01.957Z,7.17
2019-04-26T16:23:41.317Z,6.90
2019-04-26T16:26:08.462Z,7.50
2019-04-26T16:29:06.576Z,7.53
2019-04-26T16:31:50.199Z,7.08
2019-04-26T16:34:23.430Z,8.43
2019-04-26T16:36:55.631Z,8.25
2019-04-26T16:39:32.316Z,7.37
2019-04-26T16:42:05.032Z,7.17
2019-04-26T16:44:35.218Z,7.90
2019-04-26T16:47:07.370Z,8.18
2019-04-26T16:49:41.873Z,7.10
2019-04-26T16:54:47.759Z,8.38
2019-04-26T16:57:19.840Z,8.05
2019-04-26T16:59:57.581Z,7.67
2019-04-26T17:00:45.463Z,7.78
2019-04-26T17:02:28.001Z,7.37
2019-04-26T17:05:03.626Z,6.83
2019-04-26T17:07:39.137Z,8.23
2019-04-26T17:10:08.053Z,6.92
2019-04-26T17:12:42.198Z,8.90
2019-04-26T17:15:17.543Z,9.35
2019-04-26T17:17:59.839Z,8.80
2019-04-26T17:20:32.217Z,8.55
2019-04-26T17:23:16.607Z,10.10
2019-04-26T17:26:08.495Z,7.70
2019-04-26T17:28:40.664Z,8.23
2019-04-26T17:31:12.854Z,7.83
2019-04-26T17:33:45.232Z,8.13
2019-04-26T17:36:17.755Z,8.48
2019-04-26T17:38:50.615Z,7.17
2019-04-26T17:41:23.042Z,7.85
2019-04-26T17:44:06.324Z,12.93
2019-04-26T17:46:32.427Z,10.75
2019-04-26T17:49:03.519Z,8.53
2019-04-26T17:51:42.408Z,8.20
2019-04-26T17:54:26.669Z,8.20
2019-04-26T17:56:43.895Z,8.25
2019-04-26T17:59:32.568Z,14.00
2019-04-26T18:01:57.275Z,8.78
2019-04-26T18:04:32.458Z,9.30
2019-04-26T18:07:03.874Z,9.20
2019-04-26T18:09:45.914Z,11.15
2019-04-26T18:12:08.325Z,17.12
2019-04-26T18:14:40.479Z,15.40
2019-04-26T18:17:25.182Z,9.53
2019-04-26T18:20:23.509Z,9.68
2019-04-26T18:23:00.298Z,9.45
2019-04-26T18:25:32.798Z,10.85
2019-04-26T18:28:08.848Z,9.03
2019-04-26T18:30:40.402Z,13.32
2019-04-26T18:33:13.468Z,5.78
2019-04-26T18:35:49.214Z,9.40
2019-04-26T18:38:20.142Z,4.47
2019-04-26T18:41:01.232Z,3.50
2019-04-26T18:43:26.463Z,5.03
2019-04-26T18:46:03.449Z,3.63
2019-04-26T18:48:40.733Z,3.87
2019-04-26T18:51:11.187Z,6.43
2019-04-26T18:54:09.240Z,3.92
2019-04-26T18:56:45.039Z,3.40
2019-04-26T18:59:17.418Z,7.20
2019-04-26T19:01:49.990Z,12.17
2019-04-26T19:04:23.606Z,10.23
2019-04-26T19:06:56.658Z,6.40
2019-04-26T19:09:31.385Z,4.50
2019-04-26T19:12:04.300Z,4.13
2019-04-26T19:14:50.275Z,4.67
2019-04-26T19:17:30.425Z,6.67
2019-04-26T19:20:12.669Z,5.53
2019-04-26T19:22:53.242Z,4.03
2019-04-26T19:25:25.462Z,4.50
2019-04-26T19:28:03.539Z,18.27
2019-04-26T19:30:33.105Z,11.80
2019-04-26T19:33:11.667Z,8.03
2019-04-26T19:35:44.035Z,3.80
2019-04-26T19:38:14.840Z,5.83
2019-04-26T19:40:58.890Z,11.50
2019-04-26T19:43:35.003Z,18.87
2019-04-26T19:46:16.941Z,9.90
2019-04-26T19:49:07.969Z,5.17
2019-04-26T19:52:03.756Z,3.90
2019-04-26T19:54:39.671Z,4.27
2019-04-26T19:57:17.506Z,3.30
2019-04-26T19:59:49.681Z,4.17
2019-04-26T20:02:22.303Z,3.53
2019-04-26T20:04:54.499Z,3.50
2019-04-26T20:07:28.201Z,3.70
2019-04-26T20:10:04.876Z,3.17
2019-04-26T20:12:37.902Z,3.50
2019-04-26T20:15:15.365Z,2.93
2019-04-26T20:17:43.732Z,2.93
2019-04-26T20:20:21.441Z,3.10
2019-04-26T20:22:51.878Z,2.70
2019-04-26T20:25:26.405Z,3.33
2019-04-26T20:28:00.049Z,2.50
2019-04-26T20:31:08.746Z,2.60
2019-04-26T20:33:42.264Z,2.80
2019-04-26T20:36:14.592Z,2.37
2019-04-26T20:38:47.780Z,5.33
2019-04-26T20:41:21.883Z,4.83
2019-04-26T20:44:04.948Z,5.50
2019-04-26T20:46:29.769Z,4.43
2019-04-26T20:49:07.847Z,4.47
2019-04-26T20:51:42.228Z,4.87
2019-04-26T20:54:16.242Z,6.30
2019-04-26T20:56:50.529Z,4.77
2019-04-26T20:59:23.577Z,4.53
2019-04-26T21:02:06.996Z,5.30
2019-04-26T21:04:38.092Z,3.87
2019-04-26T21:07:06.847Z,5.23
2019-04-26T21:09:40.826Z,5.00
2019-04-26T21:12:17.437Z,4.17
2019-04-26T21:14:48.337Z,3.80
2019-04-26T21:17:24.245Z,3.10
2019-04-26T21:20:07.364Z,4.00
2019-04-26T21:22:41.846Z,3.37
2019-04-26T21:25:21.817Z,3.27
2019-04-26T21:28:02.441Z,2.93
2019-04-26T21:30:59.364Z,2.73
2019-04-26T21:33:53.468Z,3.20
2019-04-26T21:36:44.085Z,2.80
2019-04-26T21:39:47.624Z,3.20
2019-04-26T21:42:20.943Z,2.83
2019-04-26T21:44:54.894Z,3.87
2019-04-26T21:47:31.864Z,3.30
2019-04-26T21:50:04.108Z,3.10
2019-04-26T21:52:36.096Z,2.90
2019-04-26T21:55:08.367Z,2.90
2019-04-26T21:57:40.511Z,2.73
2019-04-26T22:00:38.291Z,2.70
2019-04-26T22:03:16.051Z,2.90
2019-04-26T22:05:49.764Z,2.70
2019-04-26T22:08:27.836Z,2.20
2019-04-26T22:11:00.629Z,3.00
2019-04-26T22:13:54.643Z,2.80
2019-04-26T22:16:38.103Z,2.80
2019-04-26T22:19:47.263Z,2.47
2019-04-26T22:22:45.260Z,3.00
2019-04-26T22:25:18.900Z,2.80
2019-04-26T22:27:54.064Z,2.50
2019-04-26T22:30:29.645Z,2.43
2019-04-26T22:33:03.047Z,2.53
2019-04-26T22:35:35.364Z,2.40
2019-04-26T22:38:07.764Z,2.37
2019-04-26T22:40:39.931Z,2.60
2019-04-26T22:43:29.556Z,2.47
2019-04-26T22:46:28.273Z,2.50
2019-04-26T22:49:01.370Z,2.30
2019-04-26T22:51:34.684Z,2.93
2019-04-26T22:54:06.424Z,3.10
2019-04-26T22:56:38.860Z,3.07
2019-04-26T22:59:11.104Z,3.37
2019-04-26T23:01:44.665Z,2.93
2019-04-26T23:04:23.678Z,3.00
2019-04-26T23:06:51.080Z,2.80
2019-04-26T23:09:23.360Z,3.23
2019-04-26T23:12:16.404Z,3.23
2019-04-26T23:15:06.875Z,3.70
2019-04-26T23:18:07.694Z,2.93
2019-04-26T23:20:43.163Z,3.33
2019-04-26T23:23:15.378Z,3.03
2019-04-26T23:25:47.911Z,2.83
2019-04-26T23:28:20.000Z,2.93
2019-04-26T23:30:53.117Z,3.03
2019-04-26T23:33:25.425Z,2.80
2019-04-26T23:35:57.562Z,3.00
2019-04-26T23:38:33.981Z,2.73
2019-04-26T23:41:07.012Z,2.90
2019-04-26T23:43:37.503Z,2.73
2019-04-26T23:46:09.801Z,2.90
2019-04-26T23:48:42.731Z,3.20
2019-04-26T23:51:16.019Z,2.43
2019-04-26T23:53:50.521Z,3.17
2019-04-26T23:56:25.205Z,3.53
2019-04-26T23:58:56.529Z,2.93
